Time;durP1;ratioP1;P1;durP2;ratioP2;P2;SDS_P1;SDS_P2;PMS_P1;PMS_P2;Temp;Humidity;BMP_temperature;BMP_pressure;BME280_temperature;BME280_humidity;BME280_pressure;Samples;Min_cycle;Max_cycle;Signal;HPM_P1;HPM_P2
2023/01/19 00:03:33;;;;;;;47.10;21.23;;;;;;;1.24;80.08;98767.25;30854089;28;97322;-63
2023/01/19 00:18:33;;;;;;;51.38;23.73;;;;;;;1.24;80.07;98799.53;30853407;28;96685;-63
2023/01/19 00:33:34;;;;;;;49.08;21.35;;;;;;;1.42;80.00;98811.91;30852727;28;96679;-63
2023/01/19 00:48:34;;;;;;;50.45;24.10;;;;;;;1.14;79.25;98830.25;30869562;28;97545;-63
2023/01/19 01:03:35;;;;;;;48.60;23.00;;;;;;;0.95;79.39;98839.00;30870999;28;96645;-63
2023/01/19 01:18:35;;;;;;;40.10;20.77;;;;;;;1.00;80.22;98866.44;30868870;28;96722;-63
2023/01/19 01:33:35;;;;;;;29.05;13.90;;;;;;;1.36;80.07;98873.66;30867765;28;96603;-63
2023/01/19 01:48:38;;;;;;;17.88;8.88;;;;;;;1.25;79.10;98876.47;30866026;28;97232;-66
2023/01/19 02:03:39;;;;;;;10.43;6.25;;;;;;;1.21;79.18;98882.97;30864999;28;96666;-67
2023/01/19 02:18:40;;;;;;;11.50;4.75;;;;;;;1.19;78.65;98896.22;30863266;28;96952;-66
2023/01/19 02:33:41;;;;;;;8.07;4.90;;;;;;;1.16;78.60;98904.34;30862084;28;96912;-66
2023/01/19 02:48:42;;;;;;;7.40;4.38;;;;;;;0.92;77.82;98908.28;30860520;28;96722;-65
2023/01/19 03:03:57;;;;;;;8.20;5.00;;;;;;;0.96;77.95;98895.72;30858718;28;96695;-65
2023/01/19 03:19:07;;;;;;;8.10;3.80;;;;;;;0.94;77.55;98903.69;30858041;28;96746;-67
2023/01/19 03:34:10;;;;;;;5.28;3.72;;;;;;;0.98;77.34;98907.69;30856925;28;96593;-65
2023/01/19 03:49:11;;;;;;;7.27;4.97;;;;;;;0.98;77.11;98910.31;30854377;28;96739;-64
2023/01/19 04:04:12;;;;;;;8.85;5.30;;;;;;;1.00;77.33;98908.41;30854532;28;96744;-66
2023/01/19 04:19:12;;;;;;;10.27;6.60;;;;;;;1.00;77.10;98921.50;30866405;28;96791;-63
2023/01/19 04:34:13;;;;;;;14.27;8.25;;;;;;;1.04;77.56;98947.44;30871318;28;96636;-64
2023/01/19 04:49:14;;;;;;;16.88;9.27;;;;;;;1.01;77.66;98991.38;30869386;28;96785;-63
2023/01/19 05:04:15;;;;;;;13.55;8.18;;;;;;;1.07;78.05;99016.22;30869073;28;96629;-67
2023/01/19 05:19:15;;;;;;;13.75;9.38;;;;;;;1.07;77.42;99033.75;30866106;28;96580;-64
2023/01/19 05:34:16;;;;;;;15.52;8.90;;;;;;;1.07;78.09;99028.50;30862768;28;96575;-64
2023/01/19 05:49:16;;;;;;;13.55;6.82;;;;;;;1.06;78.06;99032.09;30862064;28;96697;-65
2023/01/19 06:04:18;;;;;;;11.43;6.63;;;;;;;1.08;78.44;99064.22;30861014;28;96725;-64
2023/01/19 06:19:19;;;;;;;7.15;5.45;;;;;;;1.11;78.49;99075.28;30860313;28;96951;-67
2023/01/19 06:34:20;;;;;;;7.55;4.70;;;;;;;1.06;78.28;99101.09;30857985;28;96670;-68
2023/01/19 06:49:20;;;;;;;11.10;6.45;;;;;;;0.99;77.81;99121.78;30852283;28;97940;-73
2023/01/19 07:04:21;;;;;;;12.10;7.25;;;;;;;0.96;78.13;99127.31;30852445;28;96807;-72
2023/01/19 07:19:21;;;;;;;11.70;5.45;;;;;;;0.99;78.01;99120.97;30854555;28;96610;-71
2023/01/19 07:34:22;;;;;;;12.48;7.18;;;;;;;0.92;77.45;99136.41;30852363;28;97277;-71
2023/01/19 07:49:23;;;;;;;11.27;7.35;;;;;;;0.97;77.64;99128.13;30847186;28;96632;-75
2023/01/19 08:04:27;;;;;;;13.60;7.22;;;;;;;1.09;76.93;99140.16;30848112;28;96633;-74
2023/01/19 08:19:28;;;;;;;16.60;8.40;;;;;;;1.13;76.74;99164.34;30848691;28;98381;-70
2023/01/19 08:34:29;;;;;;;14.88;8.48;;;;;;;1.21;76.24;99188.09;30848195;28;97504;-72
2023/01/19 08:49:30;;;;;;;12.93;7.68;;;;;;;1.38;75.29;99178.75;30846210;28;96962;-75
2023/01/19 09:04:33;;;;;;;14.55;7.13;;;;;;;1.90;74.19;99202.16;30856225;28;96652;-72
2023/01/19 09:19:33;;;;;;;15.15;7.70;;;;;;;4.34;73.03;99218.50;30864162;28;97055;-72
2023/01/19 09:34:34;;;;;;;12.20;6.65;;;;;;;7.75;69.26;99223.63;30861891;28;96716;-68
2023/01/19 09:49:40;;;;;;;14.40;5.75;;;;;;;13.36;61.36;99217.31;30862297;28;96762;-68
2023/01/19 10:05:01;;;;;;;12.50;5.07;;;;;;;18.75;49.08;99202.63;30858504;28;98122;-73
2023/01/19 10:20:09;;;;;;;12.60;6.53;;;;;;;20.79;41.15;99198.81;30855501;28;96734;-70
2023/01/19 10:35:20;;;;;;;10.27;5.67;;;;;;;24.10;32.82;99203.72;30855978;28;97435;-66
2023/01/19 10:50:26;;;;;;;7.73;5.03;;;;;;;24.35;26.92;99210.03;30854089;28;97215;-67
2023/01/19 11:05:30;;;;;;;10.67;6.10;;;;;;;26.14;22.33;99209.00;30854611;28;97166;-66
2023/01/19 11:20:49;;;;;;;9.93;5.63;;;;;;;28.43;19.38;99198.56;30740027;28;97198;-73
2023/01/19 11:36:01;;;;;;;10.60;5.40;;;;;;;29.65;16.64;99188.00;30730529;28;96764;-69
2023/01/19 11:51:05;;;;;;;7.77;5.13;;;;;;;29.50;16.18;99185.75;30728217;28;97348;-71
2023/01/19 12:06:11;;;;;;;11.17;5.70;;;;;;;28.22;16.36;99163.47;30727279;28;97407;-71
2023/01/19 12:21:11;;;;;;;8.10;4.87;;;;;;;30.64;14.00;99141.66;30725982;28;96721;-64
2023/01/19 12:36:34;;;;;;;9.90;5.45;;;;;;;30.95;13.94;99129.53;30812296;28;96842;-65
2023/01/19 12:51:34;;;;;;;9.03;5.83;;;;;;;30.54;13.65;99159.34;30776299;28;97627;-65
2023/01/19 13:06:47;;;;;;;14.65;5.88;;;;;;;31.44;13.02;99156.56;30741867;28;97358;-65
2023/01/19 13:21:48;;;;;;;10.27;6.27;;;;;;;28.42;14.61;99150.38;30690215;28;96762;-66
2023/01/19 13:36:51;;;;;;;11.47;5.50;;;;;;;27.15;15.46;99170.31;30738577;28;97313;-65
2023/01/19 13:52:22;;;;;;;10.97;5.50;;;;;;;24.30;16.75;99180.97;30737985;28;98047;-66
2023/01/19 14:07:25;;;;;;;10.63;5.97;;;;;;;26.00;15.71;99194.47;30737082;28;96750;-65
2023/01/19 14:22:43;;;;;;;9.03;4.37;;;;;;;23.82;16.24;99203.34;30912233;28;96842;-65
2023/01/19 14:37:46;;;;;;;6.23;4.23;;;;;;;15.14;23.09;99205.63;30919867;28;97635;-64
2023/01/19 14:52:57;;;;;;;14.23;4.30;;;;;;;10.09;27.38;99220.72;30930308;28;97045;-64
2023/01/19 15:07:57;;;;;;;9.10;4.87;;;;;;;6.58;32.21;99247.25;30874707;28;96665;-65
2023/01/19 15:22:57;;;;;;;14.02;5.80;;;;;;;4.36;36.33;99268.44;30849856;28;96853;-63
2023/01/19 15:37:58;;;;;;;14.77;6.10;;;;;;;2.96;39.34;99270.41;30839449;28;97008;-63
2023/01/19 15:52:58;;;;;;;20.90;8.95;;;;;;;1.93;42.01;99275.41;30846247;28;96907;-65
2023/01/19 16:07:59;;;;;;;26.33;11.25;;;;;;;1.17;44.34;99281.97;30854611;28;96765;-65
2023/01/19 16:22:59;;;;;;;57.58;23.15;;;;;;;0.65;45.91;99292.50;30857841;28;96932;-65
2023/01/19 16:38:00;;;;;;;30.45;17.30;;;;;;;0.25;47.77;99298.44;30882583;28;97128;-65
2023/01/19 16:53:00;;;;;;;48.55;17.13;;;;;;;-0.27;49.87;99306.09;30906088;28;97039;-64
2023/01/19 17:08:00;;;;;;;27.58;12.88;;;;;;;-0.53;51.15;99311.63;30918415;28;97729;-66
2023/01/19 17:23:01;;;;;;;21.13;10.15;;;;;;;-0.68;52.28;99308.41;30904820;28;97874;-68
2023/01/19 17:38:01;;;;;;;20.58;9.77;;;;;;;-0.72;52.95;99324.47;30852345;28;97216;-65
2023/01/19 17:53:02;;;;;;;25.77;11.77;;;;;;;-0.81;53.79;99346.94;30852954;28;96633;-64
2023/01/19 18:08:03;;;;;;;22.98;10.70;;;;;;;-1.16;54.71;99358.31;30852938;28;97156;-64
2023/01/19 18:23:04;;;;;;;23.60;11.07;;;;;;;-1.52;55.69;99360.09;30884087;28;97082;-66
2023/01/19 18:38:04;;;;;;;22.92;12.40;;;;;;;-1.74;56.73;99353.81;30897797;28;96856;-67
2023/01/19 18:53:06;;;;;;;19.15;11.85;;;;;;;-1.88;57.64;99348.78;30908164;28;96912;-68
2023/01/19 19:08:07;;;;;;;17.48;11.40;;;;;;;-1.90;58.49;99350.66;30900996;28;97097;-64
2023/01/19 19:23:07;;;;;;;26.55;11.65;;;;;;;-1.97;58.42;99375.56;30895481;28;96871;-70
2023/01/19 19:38:08;;;;;;;34.75;16.50;;;;;;;-2.17;59.28;99406.53;30825679;28;96786;-70
2023/01/19 19:53:08;;;;;;;31.88;20.48;;;;;;;-2.65;61.50;99437.66;30877346;28;97176;-61
2023/01/19 20:08:08;;;;;;;40.72;21.13;;;;;;;-2.73;62.39;99454.66;30887123;28;97610;-67
2023/01/19 20:23:09;;;;;;;40.78;19.65;;;;;;;-2.66;63.00;99469.91;30891848;28;97133;-62
2023/01/19 20:38:09;;;;;;;44.55;20.13;;;;;;;-2.61;62.93;99470.41;30893698;28;97561;-62
2023/01/19 20:53:10;;;;;;;52.20;25.65;;;;;;;-2.44;63.37;99480.53;30925739;28;96874;-62
2023/01/19 21:08:12;;;;;;;48.53;20.63;;;;;;;-2.29;64.05;99485.66;30941454;28;97339;-65
2023/01/19 21:23:12;;;;;;;41.47;20.95;;;;;;;-2.15;64.18;99487.31;30857895;28;96735;-64
2023/01/19 21:38:13;;;;;;;39.40;20.40;;;;;;;-2.00;63.82;99493.25;30843495;28;98221;-67
2023/01/19 21:53:13;;;;;;;41.28;19.73;;;;;;;-1.87;63.76;99492.28;30862322;28;96876;-62
2023/01/19 22:08:14;;;;;;;36.60;18.60;;;;;;;-1.71;64.57;99486.81;30863097;28;96796;-65
2023/01/19 22:23:14;;;;;;;39.88;20.10;;;;;;;-1.69;64.03;99510.19;30861909;28;97150;-63
2023/01/19 22:38:14;;;;;;;36.33;20.95;;;;;;;-1.74;64.23;99531.41;30859772;28;96745;-63
2023/01/19 22:53:15;;;;;;;51.88;24.77;;;;;;;-1.85;64.17;99557.44;30860312;28;96774;-63
2023/01/19 23:08:15;;;;;;;50.30;27.08;;;;;;;-1.93;65.11;99554.53;30859325;28;96747;-62
2023/01/19 23:23:15;;;;;;;48.53;24.92;;;;;;;-1.99;65.91;99549.72;30856770;28;96809;-62
2023/01/19 23:38:16;;;;;;;52.70;26.52;;;;;;;-1.98;66.05;99562.69;30856877;28;97322;-63
2023/01/19 23:53:16;;;;;;;52.85;26.50;;;;;;;-1.96;65.52;99586.06;30854767;28;96693;-66
